Englesville, Pennsylvania
Current Conditions -  °F | °C
As of 7:54 AM on Thursday 18 Dec 2014 (Local Time) from KPTW Reporting Station
Broken Clouds Broken Clouds  
Wind Chill: -3°   Ceiling: 4000
Heat Index:   Visibility: 10mi
Dew Point: -6°   Wind: 7mph
Humidity: 61%   Direction: 300°WNW
Pressure: 30.06"   Gusts: 17mph
Location:  40.3481°N, 75.6818°W
Report Text: KPTW 181254Z AUTO 30006G15KT 10SM BKN040 01/M06 A3006 RMK AO2 SLP179 T00061061
Loading
Personal Weather Stations






























Interactive Weather Map New forecast layout! Learn more

10-Day Weather Forecast

Advertisements
Track Severe Weather on mobile